sensor_id;sensor_type;location;lat;lon;timestamp;temperature;humidity
14682;DHT22;7429;52.498;13.480;2023-05-13T00:00:02;15.10;99.90
14682;DHT22;7429;52.498;13.480;2023-05-13T00:03:07;15.00;99.90
14682;DHT22;7429;52.498;13.480;2023-05-13T00:06:10;14.90;99.90
14682;DHT22;7429;52.498;13.480;2023-05-13T00:09:13;14.90;99.90
14682;DHT22;7429;52.498;13.480;2023-05-13T00:12:16;14.90;99.90
14682;DHT22;7429;52.498;13.480;2023-05-13T00:15:21;14.80;99.90
14682;DHT22;7429;52.498;13.480;2023-05-13T00:18:24;14.70;99.90
14682;DHT22;7429;52.498;13.480;2023-05-13T00:21:27;14.70;99.90
14682;DHT22;7429;52.498;13.480;2023-05-13T00:24:30;14.60;99.90
14682;DHT22;7429;52.498;13.480;2023-05-13T00:27:33;14.60;99.90
14682;DHT22;7429;52.498;13.480;2023-05-13T00:30:38;14.60;99.90
14682;DHT22;7429;52.498;13.480;2023-05-13T00:33:44;14.50;99.90
14682;DHT22;7429;52.498;13.480;2023-05-13T00:36:47;14.50;99.90
14682;DHT22;7429;52.498;13.480;2023-05-13T00:39:50;14.50;99.90
14682;DHT22;7429;52.498;13.480;2023-05-13T00:42:54;14.50;99.90
14682;DHT22;7429;52.498;13.480;2023-05-13T00:45:58;14.40;99.90
14682;DHT22;7429;52.498;13.480;2023-05-13T00:49:03;14.40;99.90
14682;DHT22;7429;52.498;13.480;2023-05-13T00:52:06;14.40;99.90
14682;DHT22;7429;52.498;13.480;2023-05-13T00:55:12;14.40;99.90
14682;DHT22;7429;52.498;13.480;2023-05-13T00:58:15;14.40;99.90
14682;DHT22;7429;52.498;13.480;2023-05-13T01:01:26;14.40;99.90
14682;DHT22;7429;52.498;13.480;2023-05-13T01:04:40;14.30;99.90
14682;DHT22;7429;52.498;13.480;2023-05-13T01:07:50;14.30;99.90
14682;DHT22;7429;52.498;13.480;2023-05-13T01:11:02;14.30;99.90
14682;DHT22;7429;52.498;13.480;2023-05-13T01:14:24;14.30;99.90
14682;DHT22;7429;52.498;13.480;2023-05-13T01:17:31;14.20;99.90
14682;DHT22;7429;52.498;13.480;2023-05-13T01:20:40;14.10;99.90
14682;DHT22;7429;52.498;13.480;2023-05-13T01:23:45;14.10;99.90
14682;DHT22;7429;52.498;13.480;2023-05-13T01:26:49;14.10;99.90
14682;DHT22;7429;52.498;13.480;2023-05-13T01:29:53;14.00;99.90
14682;DHT22;7429;52.498;13.480;2023-05-13T01:33:01;14.00;99.90
14682;DHT22;7429;52.498;13.480;2023-05-13T01:36:06;14.00;99.90
14682;DHT22;7429;52.498;13.480;2023-05-13T01:39:12;14.00;99.90
14682;DHT22;7429;52.498;13.480;2023-05-13T01:42:16;14.00;99.90
14682;DHT22;7429;52.498;13.480;2023-05-13T01:45:19;14.00;99.90
14682;DHT22;7429;52.498;13.480;2023-05-13T01:48:23;13.90;99.90
14682;DHT22;7429;52.498;13.480;2023-05-13T01:51:26;13.80;99.90
14682;DHT22;7429;52.498;13.480;2023-05-13T01:54:30;13.80;99.90
14682;DHT22;7429;52.498;13.480;2023-05-13T01:57:39;13.80;99.90
14682;DHT22;7429;52.498;13.480;2023-05-13T02:00:42;13.80;99.90
14682;DHT22;7429;52.498;13.480;2023-05-13T02:03:45;13.80;99.90
14682;DHT22;7429;52.498;13.480;2023-05-13T02:06:48;13.70;99.90
14682;DHT22;7429;52.498;13.480;2023-05-13T02:09:53;13.70;99.90
14682;DHT22;7429;52.498;13.480;2023-05-13T02:13:00;13.70;99.90
14682;DHT22;7429;52.498;13.480;2023-05-13T02:16:05;13.60;99.90
14682;DHT22;7429;52.498;13.480;2023-05-13T02:19:08;13.60;99.90
14682;DHT22;7429;52.498;13.480;2023-05-13T02:22:12;13.60;99.90
14682;DHT22;7429;52.498;13.480;2023-05-13T02:25:16;13.50;99.90
14682;DHT22;7429;52.498;13.480;2023-05-13T02:28:19;13.50;99.90
14682;DHT22;7429;52.498;13.480;2023-05-13T02:31:22;13.40;99.90
14682;DHT22;7429;52.498;13.480;2023-05-13T02:34:25;13.40;99.90
14682;DHT22;7429;52.498;13.480;2023-05-13T02:37:28;13.40;99.90
14682;DHT22;7429;52.498;13.480;2023-05-13T02:40:37;13.40;99.90
14682;DHT22;7429;52.498;13.480;2023-05-13T02:43:41;13.40;99.90
14682;DHT22;7429;52.498;13.480;2023-05-13T02:46:44;13.30;99.90
14682;DHT22;7429;52.498;13.480;2023-05-13T02:49:47;13.40;99.90
14682;DHT22;7429;52.498;13.480;2023-05-13T02:52:50;13.30;99.90
14682;DHT22;7429;52.498;13.480;2023-05-13T02:55:55;13.30;99.90
14682;DHT22;7429;52.498;13.480;2023-05-13T02:59:00;13.30;99.90
14682;DHT22;7429;52.498;13.480;2023-05-13T03:02:03;13.20;99.90
14682;DHT22;7429;52.498;13.480;2023-05-13T03:05:07;13.20;99.90
14682;DHT22;7429;52.498;13.480;2023-05-13T03:08:10;13.10;99.90
14682;DHT22;7429;52.498;13.480;2023-05-13T03:11:15;13.10;99.90
14682;DHT22;7429;52.498;13.480;2023-05-13T03:14:18;13.00;99.90
14682;DHT22;7429;52.498;13.480;2023-05-13T03:17:21;13.00;99.90
14682;DHT22;7429;52.498;13.480;2023-05-13T03:20:25;12.90;99.90
14682;DHT22;7429;52.498;13.480;2023-05-13T03:23:29;12.80;99.90
14682;DHT22;7429;52.498;13.480;2023-05-13T03:26:34;12.80;99.90
14682;DHT22;7429;52.498;13.480;2023-05-13T03:29:38;12.70;99.90
14682;DHT22;7429;52.498;13.480;2023-05-13T03:32:42;12.60;99.90
14682;DHT22;7429;52.498;13.480;2023-05-13T03:35:46;12.60;99.90
14682;DHT22;7429;52.498;13.480;2023-05-13T03:38:53;12.60;99.90
14682;DHT22;7429;52.498;13.480;2023-05-13T03:41:58;12.60;99.90
14682;DHT22;7429;52.498;13.480;2023-05-13T03:45:02;12.50;99.90
14682;DHT22;7429;52.498;13.480;2023-05-13T03:48:09;12.50;99.90
14682;DHT22;7429;52.498;13.480;2023-05-13T03:51:13;12.50;99.90
14682;DHT22;7429;52.498;13.480;2023-05-13T03:54:17;12.50;99.90
14682;DHT22;7429;52.498;13.480;2023-05-13T03:57:21;12.50;99.90
14682;DHT22;7429;52.498;13.480;2023-05-13T04:00:25;12.40;99.90
14682;DHT22;7429;52.498;13.480;2023-05-13T04:03:28;12.40;99.90
14682;DHT22;7429;52.498;13.480;2023-05-13T04:06:32;12.40;99.90
14682;DHT22;7429;52.498;13.480;2023-05-13T04:09:36;12.40;99.90
14682;DHT22;7429;52.498;13.480;2023-05-13T04:12:42;12.40;99.90
14682;DHT22;7429;52.498;13.480;2023-05-13T04:15:45;12.40;99.90
14682;DHT22;7429;52.498;13.480;2023-05-13T04:18:48;12.40;99.90
14682;DHT22;7429;52.498;13.480;2023-05-13T04:21:51;12.40;99.90
14682;DHT22;7429;52.498;13.480;2023-05-13T04:24:57;12.40;99.90
14682;DHT22;7429;52.498;13.480;2023-05-13T04:28:01;12.50;99.90
14682;DHT22;7429;52.498;13.480;2023-05-13T04:31:12;12.50;99.90
14682;DHT22;7429;52.498;13.480;2023-05-13T04:34:15;12.60;99.90
14682;DHT22;7429;52.498;13.480;2023-05-13T04:37:21;12.60;99.90
14682;DHT22;7429;52.498;13.480;2023-05-13T04:40:26;12.70;99.90
14682;DHT22;7429;52.498;13.480;2023-05-13T04:43:33;12.70;99.90
14682;DHT22;7429;52.498;13.480;2023-05-13T04:46:37;12.80;99.90
14682;DHT22;7429;52.498;13.480;2023-05-13T04:49:41;12.80;99.90
14682;DHT22;7429;52.498;13.480;2023-05-13T04:52:44;12.90;99.90
14682;DHT22;7429;52.498;13.480;2023-05-13T04:55:50;12.90;99.90
14682;DHT22;7429;52.498;13.480;2023-05-13T04:59:02;13.00;99.90
14682;DHT22;7429;52.498;13.480;2023-05-13T05:02:05;13.10;99.90
14682;DHT22;7429;52.498;13.480;2023-05-13T05:05:08;13.20;99.90
14682;DHT22;7429;52.498;13.480;2023-05-13T05:08:12;13.30;99.90
14682;DHT22;7429;52.498;13.480;2023-05-13T05:11:15;13.30;99.90
14682;DHT22;7429;52.498;13.480;2023-05-13T05:14:19;13.40;99.90
14682;DHT22;7429;52.498;13.480;2023-05-13T05:17:24;13.50;99.90
14682;DHT22;7429;52.498;13.480;2023-05-13T05:20:29;13.60;99.90
14682;DHT22;7429;52.498;13.480;2023-05-13T05:23:34;13.80;99.90
14682;DHT22;7429;52.498;13.480;2023-05-13T05:26:37;13.90;99.90
14682;DHT22;7429;52.498;13.480;2023-05-13T05:29:44;14.00;99.90
14682;DHT22;7429;52.498;13.480;2023-05-13T05:32:48;14.10;99.90
14682;DHT22;7429;52.498;13.480;2023-05-13T05:35:52;14.20;99.90
14682;DHT22;7429;52.498;13.480;2023-05-13T05:38:56;14.30;99.90
14682;DHT22;7429;52.498;13.480;2023-05-13T05:42:06;14.40;99.90
14682;DHT22;7429;52.498;13.480;2023-05-13T05:45:11;14.60;99.90
14682;DHT22;7429;52.498;13.480;2023-05-13T05:48:15;14.70;99.90
14682;DHT22;7429;52.498;13.480;2023-05-13T05:51:18;14.80;99.90
14682;DHT22;7429;52.498;13.480;2023-05-13T05:54:22;14.90;99.90
14682;DHT22;7429;52.498;13.480;2023-05-13T05:57:26;15.00;99.90
14682;DHT22;7429;52.498;13.480;2023-05-13T06:00:31;15.10;99.90
14682;DHT22;7429;52.498;13.480;2023-05-13T06:03:34;15.20;99.90
14682;DHT22;7429;52.498;13.480;2023-05-13T06:06:38;15.30;99.90
14682;DHT22;7429;52.498;13.480;2023-05-13T06:09:41;15.50;99.90
14682;DHT22;7429;52.498;13.480;2023-05-13T06:12:44;15.60;99.90
14682;DHT22;7429;52.498;13.480;2023-05-13T06:15:49;15.80;99.90
14682;DHT22;7429;52.498;13.480;2023-05-13T06:18:52;15.80;99.90
14682;DHT22;7429;52.498;13.480;2023-05-13T06:21:55;15.80;99.90
14682;DHT22;7429;52.498;13.480;2023-05-13T06:24:58;15.90;99.90
14682;DHT22;7429;52.498;13.480;2023-05-13T06:28:01;16.10;99.90
14682;DHT22;7429;52.498;13.480;2023-05-13T06:31:08;16.20;99.90
14682;DHT22;7429;52.498;13.480;2023-05-13T06:34:11;16.40;99.90
14682;DHT22;7429;52.498;13.480;2023-05-13T06:37:17;16.50;99.90
14682;DHT22;7429;52.498;13.480;2023-05-13T06:40:20;16.70;99.90
14682;DHT22;7429;52.498;13.480;2023-05-13T06:43:25;16.90;99.90
14682;DHT22;7429;52.498;13.480;2023-05-13T06:46:33;17.10;99.90
14682;DHT22;7429;52.498;13.480;2023-05-13T06:49:36;17.20;99.90
14682;DHT22;7429;52.498;13.480;2023-05-13T06:52:39;17.50;99.90
14682;DHT22;7429;52.498;13.480;2023-05-13T06:55:46;17.60;99.90
14682;DHT22;7429;52.498;13.480;2023-05-13T06:58:49;17.70;99.90
14682;DHT22;7429;52.498;13.480;2023-05-13T07:01:53;17.90;99.90
14682;DHT22;7429;52.498;13.480;2023-05-13T07:04:57;18.20;99.90
14682;DHT22;7429;52.498;13.480;2023-05-13T07:08:00;18.40;99.90
14682;DHT22;7429;52.498;13.480;2023-05-13T07:11:07;18.50;99.90
14682;DHT22;7429;52.498;13.480;2023-05-13T07:14:10;18.60;99.90
14682;DHT22;7429;52.498;13.480;2023-05-13T07:17:15;18.80;99.90
14682;DHT22;7429;52.498;13.480;2023-05-13T07:20:18;19.00;99.90
14682;DHT22;7429;52.498;13.480;2023-05-13T07:23:24;19.00;99.90
14682;DHT22;7429;52.498;13.480;2023-05-13T07:26:27;19.00;99.90
14682;DHT22;7429;52.498;13.480;2023-05-13T07:29:30;19.20;99.90
14682;DHT22;7429;52.498;13.480;2023-05-13T07:32:35;19.20;99.90
14682;DHT22;7429;52.498;13.480;2023-05-13T07:35:38;19.50;99.90
14682;DHT22;7429;52.498;13.480;2023-05-13T07:38:41;19.60;99.90
14682;DHT22;7429;52.498;13.480;2023-05-13T07:41:45;19.50;99.90
14682;DHT22;7429;52.498;13.480;2023-05-13T07:44:48;19.70;99.90
14682;DHT22;7429;52.498;13.480;2023-05-13T07:47:52;19.90;99.90
14682;DHT22;7429;52.498;13.480;2023-05-13T07:50:56;19.70;99.90
14682;DHT22;7429;52.498;13.480;2023-05-13T07:53:59;19.60;99.90
14682;DHT22;7429;52.498;13.480;2023-05-13T07:57:02;19.60;99.90
14682;DHT22;7429;52.498;13.480;2023-05-13T08:00:06;19.40;99.90
14682;DHT22;7429;52.498;13.480;2023-05-13T08:03:17;19.50;99.90
14682;DHT22;7429;52.498;13.480;2023-05-13T08:06:20;19.50;99.90
14682;DHT22;7429;52.498;13.480;2023-05-13T08:09:23;19.50;99.90
14682;DHT22;7429;52.498;13.480;2023-05-13T08:12:26;19.70;99.90
14682;DHT22;7429;52.498;13.480;2023-05-13T08:15:29;20.10;99.90
14682;DHT22;7429;52.498;13.480;2023-05-13T08:18:34;20.20;99.90
14682;DHT22;7429;52.498;13.480;2023-05-13T08:21:37;20.20;99.90
14682;DHT22;7429;52.498;13.480;2023-05-13T08:24:40;20.20;99.90
14682;DHT22;7429;52.498;13.480;2023-05-13T08:27:44;20.30;99.90
14682;DHT22;7429;52.498;13.480;2023-05-13T08:30:47;20.20;99.90
14682;DHT22;7429;52.498;13.480;2023-05-13T08:33:52;20.30;99.90
14682;DHT22;7429;52.498;13.480;2023-05-13T08:36:55;20.50;99.90
14682;DHT22;7429;52.498;13.480;2023-05-13T08:39:58;20.50;99.90
14682;DHT22;7429;52.498;13.480;2023-05-13T08:43:03;20.50;99.90
14682;DHT22;7429;52.498;13.480;2023-05-13T08:46:09;20.70;99.90
14682;DHT22;7429;52.498;13.480;2023-05-13T08:49:14;20.90;99.90
14682;DHT22;7429;52.498;13.480;2023-05-13T08:52:17;20.70;99.90
14682;DHT22;7429;52.498;13.480;2023-05-13T08:55:23;20.50;99.90
14682;DHT22;7429;52.498;13.480;2023-05-13T08:58:28;20.60;99.90
14682;DHT22;7429;52.498;13.480;2023-05-13T09:01:31;20.60;99.90
14682;DHT22;7429;52.498;13.480;2023-05-13T09:04:37;20.80;99.90
14682;DHT22;7429;52.498;13.480;2023-05-13T09:07:42;20.70;99.90
14682;DHT22;7429;52.498;13.480;2023-05-13T09:10:45;20.80;99.90
14682;DHT22;7429;52.498;13.480;2023-05-13T09:13:56;20.90;99.90
14682;DHT22;7429;52.498;13.480;2023-05-13T09:17:00;21.10;99.90
14682;DHT22;7429;52.498;13.480;2023-05-13T09:20:08;21.30;99.90
14682;DHT22;7429;52.498;13.480;2023-05-13T09:23:12;21.30;99.90
14682;DHT22;7429;52.498;13.480;2023-05-13T09:26:26;21.50;99.90
14682;DHT22;7429;52.498;13.480;2023-05-13T09:29:29;21.70;99.90
14682;DHT22;7429;52.498;13.480;2023-05-13T09:32:34;21.70;99.90
14682;DHT22;7429;52.498;13.480;2023-05-13T09:35:42;21.80;99.90
14682;DHT22;7429;52.498;13.480;2023-05-13T09:38:54;22.10;99.90
14682;DHT22;7429;52.498;13.480;2023-05-13T09:41:57;22.30;99.90
14682;DHT22;7429;52.498;13.480;2023-05-13T09:45:04;22.60;99.90
14682;DHT22;7429;52.498;13.480;2023-05-13T09:48:08;22.40;99.90
14682;DHT22;7429;52.498;13.480;2023-05-13T09:51:14;22.20;99.90
14682;DHT22;7429;52.498;13.480;2023-05-13T09:54:17;22.20;99.90
14682;DHT22;7429;52.498;13.480;2023-05-13T09:57:20;22.10;99.90
14682;DHT22;7429;52.498;13.480;2023-05-13T10:00:23;21.80;99.90
14682;DHT22;7429;52.498;13.480;2023-05-13T10:03:36;21.90;99.90
14682;DHT22;7429;52.498;13.480;2023-05-13T10:06:41;22.20;99.90
14682;DHT22;7429;52.498;13.480;2023-05-13T10:09:44;22.20;99.90
14682;DHT22;7429;52.498;13.480;2023-05-13T10:12:49;22.50;99.90
14682;DHT22;7429;52.498;13.480;2023-05-13T10:15:54;23.00;99.90
14682;DHT22;7429;52.498;13.480;2023-05-13T10:18:57;23.20;99.90
14682;DHT22;7429;52.498;13.480;2023-05-13T10:22:02;23.10;99.50
14682;DHT22;7429;52.498;13.480;2023-05-13T10:25:06;22.90;99.80
14682;DHT22;7429;52.498;13.480;2023-05-13T10:28:10;22.70;98.60
14682;DHT22;7429;52.498;13.480;2023-05-13T10:31:14;22.80;99.70
14682;DHT22;7429;52.498;13.480;2023-05-13T10:34:18;23.00;98.20
14682;DHT22;7429;52.498;13.480;2023-05-13T10:37:37;23.00;98.70
14682;DHT22;7429;52.498;13.480;2023-05-13T10:41:09;23.20;99.50
14682;DHT22;7429;52.498;13.480;2023-05-13T10:44:13;23.00;98.40
14682;DHT22;7429;52.498;13.480;2023-05-13T10:47:17;22.50;99.80
14682;DHT22;7429;52.498;13.480;2023-05-13T10:50:23;22.40;99.60
14682;DHT22;7429;52.498;13.480;2023-05-13T10:53:30;22.70;98.60
14682;DHT22;7429;52.498;13.480;2023-05-13T10:56:33;22.60;98.60
14682;DHT22;7429;52.498;13.480;2023-05-13T11:03:28;22.80;98.90
14682;DHT22;7429;52.498;13.480;2023-05-13T11:06:33;22.70;97.30
14682;DHT22;7429;52.498;13.480;2023-05-13T11:09:39;23.00;98.60
14682;DHT22;7429;52.498;13.480;2023-05-13T11:13:19;23.00;97.80
14682;DHT22;7429;52.498;13.480;2023-05-13T11:16:25;23.30;98.20
14682;DHT22;7429;52.498;13.480;2023-05-13T11:19:30;23.30;97.10
14682;DHT22;7429;52.498;13.480;2023-05-13T11:22:33;23.20;97.10
14682;DHT22;7429;52.498;13.480;2023-05-13T11:25:39;23.10;97.70
14682;DHT22;7429;52.498;13.480;2023-05-13T11:29:04;23.20;97.70
14682;DHT22;7429;52.498;13.480;2023-05-13T11:32:07;23.30;96.40
14682;DHT22;7429;52.498;13.480;2023-05-13T11:35:11;23.10;96.90
14682;DHT22;7429;52.498;13.480;2023-05-13T11:38:21;23.10;97.20
14682;DHT22;7429;52.498;13.480;2023-05-13T11:41:29;23.50;98.30
14682;DHT22;7429;52.498;13.480;2023-05-13T11:44:34;23.70;96.90
14682;DHT22;7429;52.498;13.480;2023-05-13T11:47:37;23.50;97.50
14682;DHT22;7429;52.498;13.480;2023-05-13T11:50:40;23.50;96.60
14682;DHT22;7429;52.498;13.480;2023-05-13T11:53:43;23.70;98.10
14682;DHT22;7429;52.498;13.480;2023-05-13T11:56:48;23.90;97.20
14682;DHT22;7429;52.498;13.480;2023-05-13T11:59:53;23.90;97.90
14682;DHT22;7429;52.498;13.480;2023-05-13T12:02:59;24.00;96.50
14682;DHT22;7429;52.498;13.480;2023-05-13T12:06:04;24.10;95.90
14682;DHT22;7429;52.498;13.480;2023-05-13T12:09:07;24.00;96.10
14682;DHT22;7429;52.498;13.480;2023-05-13T12:12:15;23.70;96.40
14682;DHT22;7429;52.498;13.480;2023-05-13T12:15:20;24.00;96.50
14682;DHT22;7429;52.498;13.480;2023-05-13T12:18:24;24.40;97.40
14682;DHT22;7429;52.498;13.480;2023-05-13T12:21:30;24.60;96.40
14682;DHT22;7429;52.498;13.480;2023-05-13T12:24:35;24.40;96.20
14682;DHT22;7429;52.498;13.480;2023-05-13T12:27:39;24.00;96.20
14682;DHT22;7429;52.498;13.480;2023-05-13T12:30:48;24.10;96.90
14682;DHT22;7429;52.498;13.480;2023-05-13T12:33:52;24.60;96.60
14682;DHT22;7429;52.498;13.480;2023-05-13T12:36:56;24.40;96.50
14682;DHT22;7429;52.498;13.480;2023-05-13T12:40:08;24.30;95.50
14682;DHT22;7429;52.498;13.480;2023-05-13T12:43:33;24.80;97.80
14682;DHT22;7429;52.498;13.480;2023-05-13T12:46:36;24.70;96.80
14682;DHT22;7429;52.498;13.480;2023-05-13T12:49:51;24.40;96.90
14682;DHT22;7429;52.498;13.480;2023-05-13T12:52:54;24.20;98.00
14682;DHT22;7429;52.498;13.480;2023-05-13T12:56:01;24.60;96.80
14682;DHT22;7429;52.498;13.480;2023-05-13T12:59:05;25.00;97.30
14682;DHT22;7429;52.498;13.480;2023-05-13T13:02:09;25.50;97.40
14682;DHT22;7429;52.498;13.480;2023-05-13T13:05:12;25.30;95.70
14682;DHT22;7429;52.498;13.480;2023-05-13T13:08:16;24.60;96.80
14682;DHT22;7429;52.498;13.480;2023-05-13T13:11:19;24.50;98.90
14682;DHT22;7429;52.498;13.480;2023-05-13T13:14:24;24.70;96.80
14682;DHT22;7429;52.498;13.480;2023-05-13T13:17:30;24.60;97.70
14682;DHT22;7429;52.498;13.480;2023-05-13T13:20:34;24.70;98.00
14682;DHT22;7429;52.498;13.480;2023-05-13T13:28:15;25.80;97.50
14682;DHT22;7429;52.498;13.480;2023-05-13T13:31:20;25.30;96.80
14682;DHT22;7429;52.498;13.480;2023-05-13T13:34:23;25.00;96.80
14682;DHT22;7429;52.498;13.480;2023-05-13T13:37:26;25.00;97.20
14682;DHT22;7429;52.498;13.480;2023-05-13T13:40:29;25.00;97.40
14682;DHT22;7429;52.498;13.480;2023-05-13T13:43:32;24.60;98.00
14682;DHT22;7429;52.498;13.480;2023-05-13T13:46:36;24.30;97.70
14682;DHT22;7429;52.498;13.480;2023-05-13T13:49:39;24.60;98.20
14682;DHT22;7429;52.498;13.480;2023-05-13T13:52:45;25.20;99.20
14682;DHT22;7429;52.498;13.480;2023-05-13T13:55:49;25.50;96.20
14682;DHT22;7429;52.498;13.480;2023-05-13T13:58:52;25.00;95.70
14682;DHT22;7429;52.498;13.480;2023-05-13T14:01:56;24.80;97.20
14682;DHT22;7429;52.498;13.480;2023-05-13T14:04:59;25.00;96.90
14682;DHT22;7429;52.498;13.480;2023-05-13T14:08:03;25.00;97.20
14682;DHT22;7429;52.498;13.480;2023-05-13T14:11:07;25.10;96.80
14682;DHT22;7429;52.498;13.480;2023-05-13T14:14:11;25.30;97.00
14682;DHT22;7429;52.498;13.480;2023-05-13T14:17:15;25.40;96.90
14682;DHT22;7429;52.498;13.480;2023-05-13T14:20:19;24.90;97.80
14682;DHT22;7429;52.498;13.480;2023-05-13T14:23:23;24.30;97.00
14682;DHT22;7429;52.498;13.480;2023-05-13T14:26:26;24.10;96.90
14682;DHT22;7429;52.498;13.480;2023-05-13T14:29:29;24.40;97.30
14682;DHT22;7429;52.498;13.480;2023-05-13T14:32:34;24.60;96.20
14682;DHT22;7429;52.498;13.480;2023-05-13T14:35:37;24.90;97.30
14682;DHT22;7429;52.498;13.480;2023-05-13T14:38:40;25.00;96.90
14682;DHT22;7429;52.498;13.480;2023-05-13T14:41:43;25.40;97.80
14682;DHT22;7429;52.498;13.480;2023-05-13T14:44:46;25.80;98.80
14682;DHT22;7429;52.498;13.480;2023-05-13T14:47:51;26.10;96.20
14682;DHT22;7429;52.498;13.480;2023-05-13T14:50:54;25.60;95.80
14682;DHT22;7429;52.498;13.480;2023-05-13T14:53:58;25.30;97.20
14682;DHT22;7429;52.498;13.480;2023-05-13T14:57:01;25.40;95.70
14682;DHT22;7429;52.498;13.480;2023-05-13T15:00:05;25.60;95.50
14682;DHT22;7429;52.498;13.480;2023-05-13T15:03:11;25.70;95.40
14682;DHT22;7429;52.498;13.480;2023-05-13T15:06:14;25.80;96.50
14682;DHT22;7429;52.498;13.480;2023-05-13T15:09:17;25.70;94.60
14682;DHT22;7429;52.498;13.480;2023-05-13T15:12:20;25.30;95.20
14682;DHT22;7429;52.498;13.480;2023-05-13T15:15:23;25.40;95.80
14682;DHT22;7429;52.498;13.480;2023-05-13T15:18:28;25.80;95.50
14682;DHT22;7429;52.498;13.480;2023-05-13T15:21:31;25.50;95.90
14682;DHT22;7429;52.498;13.480;2023-05-13T15:24:34;25.60;95.60
14682;DHT22;7429;52.498;13.480;2023-05-13T15:27:38;25.70;95.00
14682;DHT22;7429;52.498;13.480;2023-05-13T15:30:42;25.50;95.90
14682;DHT22;7429;52.498;13.480;2023-05-13T15:33:47;25.70;94.40
14682;DHT22;7429;52.498;13.480;2023-05-13T15:36:50;25.80;95.40
14682;DHT22;7429;52.498;13.480;2023-05-13T15:39:53;26.10;95.50
14682;DHT22;7429;52.498;13.480;2023-05-13T15:42:56;26.10;95.50
14682;DHT22;7429;52.498;13.480;2023-05-13T15:45:59;25.70;96.70
14682;DHT22;7429;52.498;13.480;2023-05-13T15:49:04;25.50;97.20
14682;DHT22;7429;52.498;13.480;2023-05-13T15:52:07;24.90;98.10
14682;DHT22;7429;52.498;13.480;2023-05-13T15:55:10;24.30;99.30
14682;DHT22;7429;52.498;13.480;2023-05-13T15:58:13;23.70;99.90
14682;DHT22;7429;52.498;13.480;2023-05-13T16:01:17;23.30;99.90
14682;DHT22;7429;52.498;13.480;2023-05-13T16:04:21;22.80;99.90
14682;DHT22;7429;52.498;13.480;2023-05-13T16:07:24;22.60;99.90
14682;DHT22;7429;52.498;13.480;2023-05-13T16:10:29;22.20;99.90
14682;DHT22;7429;52.498;13.480;2023-05-13T16:13:33;21.60;99.90
14682;DHT22;7429;52.498;13.480;2023-05-13T16:16:36;21.50;99.90
14682;DHT22;7429;52.498;13.480;2023-05-13T16:19:40;21.60;99.90
14682;DHT22;7429;52.498;13.480;2023-05-13T16:22:43;21.70;99.90
14682;DHT22;7429;52.498;13.480;2023-05-13T16:25:47;21.50;99.90
14682;DHT22;7429;52.498;13.480;2023-05-13T16:28:50;21.40;99.90
14682;DHT22;7429;52.498;13.480;2023-05-13T16:31:53;21.10;99.90
14682;DHT22;7429;52.498;13.480;2023-05-13T16:34:59;20.80;99.90
14682;DHT22;7429;52.498;13.480;2023-05-13T16:38:02;20.70;99.90
14682;DHT22;7429;52.498;13.480;2023-05-13T16:41:06;20.60;99.90
14682;DHT22;7429;52.498;13.480;2023-05-13T16:44:09;20.50;99.90
14682;DHT22;7429;52.498;13.480;2023-05-13T16:47:12;20.40;99.90
14682;DHT22;7429;52.498;13.480;2023-05-13T16:50:17;20.40;99.90
14682;DHT22;7429;52.498;13.480;2023-05-13T16:53:20;20.40;99.90
14682;DHT22;7429;52.498;13.480;2023-05-13T16:56:24;20.30;99.90
14682;DHT22;7429;52.498;13.480;2023-05-13T16:59:27;20.30;99.90
14682;DHT22;7429;52.498;13.480;2023-05-13T17:02:35;20.30;99.90
14682;DHT22;7429;52.498;13.480;2023-05-13T17:05:53;20.30;99.90
14682;DHT22;7429;52.498;13.480;2023-05-13T17:08:56;20.30;99.90
14682;DHT22;7429;52.498;13.480;2023-05-13T17:11:59;20.30;99.90
14682;DHT22;7429;52.498;13.480;2023-05-13T17:15:02;20.40;99.90
14682;DHT22;7429;52.498;13.480;2023-05-13T17:18:06;20.20;99.90
14682;DHT22;7429;52.498;13.480;2023-05-13T17:21:11;19.90;99.90
14682;DHT22;7429;52.498;13.480;2023-05-13T17:24:14;19.70;99.90
14682;DHT22;7429;52.498;13.480;2023-05-13T17:27:17;19.60;99.90
14682;DHT22;7429;52.498;13.480;2023-05-13T17:30:20;19.60;99.90
14682;DHT22;7429;52.498;13.480;2023-05-13T17:33:23;19.50;99.90
14682;DHT22;7429;52.498;13.480;2023-05-13T17:36:28;19.50;99.90
14682;DHT22;7429;52.498;13.480;2023-05-13T17:39:33;19.60;99.90
14682;DHT22;7429;52.498;13.480;2023-05-13T17:42:36;19.60;99.90
14682;DHT22;7429;52.498;13.480;2023-05-13T17:45:40;19.60;99.90
14682;DHT22;7429;52.498;13.480;2023-05-13T17:48:45;19.50;99.90
14682;DHT22;7429;52.498;13.480;2023-05-13T17:51:50;19.40;99.90
14682;DHT22;7429;52.498;13.480;2023-05-13T17:54:53;19.30;99.90
14682;DHT22;7429;52.498;13.480;2023-05-13T17:57:56;19.20;99.90
14682;DHT22;7429;52.498;13.480;2023-05-13T18:01:00;19.00;99.90
14682;DHT22;7429;52.498;13.480;2023-05-13T18:04:04;18.80;99.90
14682;DHT22;7429;52.498;13.480;2023-05-13T18:07:08;18.80;99.90
14682;DHT22;7429;52.498;13.480;2023-05-13T18:10:11;18.80;99.90
14682;DHT22;7429;52.498;13.480;2023-05-13T18:13:14;18.90;99.90
14682;DHT22;7429;52.498;13.480;2023-05-13T18:16:18;18.80;99.90
14682;DHT22;7429;52.498;13.480;2023-05-13T18:19:21;18.70;99.90
14682;DHT22;7429;52.498;13.480;2023-05-13T18:22:25;18.60;99.90
14682;DHT22;7429;52.498;13.480;2023-05-13T18:25:30;18.50;99.90
14682;DHT22;7429;52.498;13.480;2023-05-13T18:28:35;18.50;99.90
14682;DHT22;7429;52.498;13.480;2023-05-13T18:31:39;18.40;99.90
14682;DHT22;7429;52.498;13.480;2023-05-13T18:34:42;18.30;99.90
14682;DHT22;7429;52.498;13.480;2023-05-13T18:37:46;18.30;99.90
14682;DHT22;7429;52.498;13.480;2023-05-13T18:40:49;18.30;99.90
14682;DHT22;7429;52.498;13.480;2023-05-13T18:43:55;18.30;99.90
14682;DHT22;7429;52.498;13.480;2023-05-13T18:46:58;18.20;99.90
14682;DHT22;7429;52.498;13.480;2023-05-13T18:50:02;18.10;99.90
14682;DHT22;7429;52.498;13.480;2023-05-13T18:53:06;18.00;99.90
14682;DHT22;7429;52.498;13.480;2023-05-13T18:56:09;17.90;99.90
14682;DHT22;7429;52.498;13.480;2023-05-13T18:59:12;17.70;99.90
14682;DHT22;7429;52.498;13.480;2023-05-13T19:02:15;17.60;99.90
14682;DHT22;7429;52.498;13.480;2023-05-13T19:05:19;17.50;99.90
14682;DHT22;7429;52.498;13.480;2023-05-13T19:08:23;17.40;99.90
14682;DHT22;7429;52.498;13.480;2023-05-13T19:11:26;17.30;99.90
14682;DHT22;7429;52.498;13.480;2023-05-13T19:14:29;17.10;99.90
14682;DHT22;7429;52.498;13.480;2023-05-13T19:17:32;17.10;99.90
14682;DHT22;7429;52.498;13.480;2023-05-13T19:20:41;17.00;99.90
14682;DHT22;7429;52.498;13.480;2023-05-13T19:23:48;16.90;99.90
14682;DHT22;7429;52.498;13.480;2023-05-13T19:26:52;16.80;99.90
14682;DHT22;7429;52.498;13.480;2023-05-13T19:29:57;16.80;99.90
14682;DHT22;7429;52.498;13.480;2023-05-13T19:33:02;16.70;99.90